Time;durP1;ratioP1;P1;durP2;ratioP2;P2;SDS_P1;SDS_P2;PMS_P1;PMS_P2;Temp;Humidity;BMP_temperature;BMP_pressure;BME280_temperature;BME280_humidity;BME280_pressure;Samples;Min_cycle;Max_cycle;Signal;HPM_P1;HPM_P2
2024/02/06 00:01:39;;;;;;;1.67;1.38;;;;;;;;;;5046972;28;20029;-85
2024/02/06 00:04:05;;;;;;;2.20;1.70;;;;;;;;;;5029536;28;20025;-85
2024/02/06 00:06:31;;;;;;;4.53;1.95;;;;;;;;;;5040623;28;20093;-85
2024/02/06 00:08:57;;;;;;;3.00;1.45;;;;;;;;;;5041061;28;20025;-85
2024/02/06 00:11:23;;;;;;;4.93;2.30;;;;;;;;;;5038838;28;20067;-85
2024/02/06 00:13:49;;;;;;;1.98;1.38;;;;;;;;;;5046418;28;20021;-86
2024/02/06 00:16:15;;;;;;;2.80;1.75;;;;;;;;;;5040358;28;20486;-85
2024/02/06 00:18:42;;;;;;;4.03;1.77;;;;;;;;;;5044997;28;20041;-85
2024/02/06 00:21:08;;;;;;;4.55;2.05;;;;;;;;;;5046741;28;20099;-84
2024/02/06 00:23:34;;;;;;;4.80;2.28;;;;;;;;;;5028988;28;20049;-85
2024/02/06 00:26:00;;;;;;;9.65;2.50;;;;;;;;;;5036060;28;20643;-85
2024/02/06 00:28:26;;;;;;;12.48;2.75;;;;;;;;;;5047646;28;20067;-84
2024/02/06 00:30:52;;;;;;;2.33;1.70;;;;;;;;;;5045524;28;20060;-84
2024/02/06 00:33:18;;;;;;;3.53;1.77;;;;;;;;;;5040520;28;20112;-84
2024/02/06 00:35:44;;;;;;;5.38;2.15;;;;;;;;;;5045304;28;20028;-85
2024/02/06 00:38:12;;;;;;;3.80;2.13;;;;;;;;;;5046774;28;20104;-84
2024/02/06 00:40:37;;;;;;;6.53;2.60;;;;;;;;;;5033788;28;20038;-84
2024/02/06 00:43:03;;;;;;;7.85;2.00;;;;;;;;;;5036122;28;20377;-84
2024/02/06 00:45:29;;;;;;;7.85;2.00;;;;;;;;;;5030803;28;20026;-83
2024/02/06 00:47:55;;;;;;;3.72;2.45;;;;;;;;;;5037555;28;20055;-85
2024/02/06 00:50:21;;;;;;;3.75;1.92;;;;;;;;;;5041120;28;20399;-84
2024/02/06 00:52:47;;;;;;;4.68;1.70;;;;;;;;;;5035897;28;20396;-84
2024/02/06 00:55:14;;;;;;;3.20;1.92;;;;;;;;;;5031198;28;20057;-84
2024/02/06 00:57:40;;;;;;;9.15;1.70;;;;;;;;;;5044913;28;20028;-85
2024/02/06 01:00:10;;;;;;;6.90;1.77;;;;;;;;;;5047717;28;20041;-84
2024/02/06 01:02:35;;;;;;;2.72;1.90;;;;;;;;;;5038195;28;20365;-84
2024/02/06 01:05:02;;;;;;;2.88;1.60;;;;;;;;;;5035305;28;20040;-84
2024/02/06 01:07:31;;;;;;;5.72;1.60;;;;;;;;;;5047570;28;20037;-85
2024/02/06 01:09:57;;;;;;;3.70;1.77;;;;;;;;;;5045195;28;20084;-85
2024/02/06 01:12:23;;;;;;;3.10;1.73;;;;;;;;;;5043320;28;20029;-85
2024/02/06 01:14:49;;;;;;;6.85;2.17;;;;;;;;;;5037777;28;20056;-85
2024/02/06 01:17:15;;;;;;;2.25;1.58;;;;;;;;;;5023643;28;20048;-84
2024/02/06 01:19:41;;;;;;;2.28;1.50;;;;;;;;;;5051643;28;20501;-84
2024/02/06 01:22:07;;;;;;;1.88;1.35;;;;;;;;;;5042114;28;20037;-85
2024/02/06 01:24:33;;;;;;;2.40;1.40;;;;;;;;;;5038647;28;20025;-85
2024/02/06 01:27:03;;;;;;;4.95;2.17;;;;;;;;;;5027163;28;20036;-85
2024/02/06 01:29:29;;;;;;;2.45;1.38;;;;;;;;;;5043005;28;20179;-86
2024/02/06 01:31:54;;;;;;;2.33;1.45;;;;;;;;;;5043461;28;20547;-85
2024/02/06 01:34:20;;;;;;;2.30;1.17;;;;;;;;;;5045605;28;20757;-84
2024/02/06 01:36:46;;;;;;;2.15;1.67;;;;;;;;;;5041015;28;20495;-85
2024/02/06 01:39:13;;;;;;;2.83;1.38;;;;;;;;;;5038243;28;20021;-84
2024/02/06 01:41:39;;;;;;;1.55;1.17;;;;;;;;;;5034594;28;20030;-85
2024/02/06 01:44:05;;;;;;;4.85;1.63;;;;;;;;;;5034229;28;20068;-83
2024/02/06 01:46:31;;;;;;;2.25;1.50;;;;;;;;;;5042199;28;20086;-84
2024/02/06 01:48:58;;;;;;;3.40;1.52;;;;;;;;;;5031355;28;20029;-85
2024/02/06 01:51:28;;;;;;;1.73;1.42;;;;;;;;;;5040398;28;20061;-84
2024/02/06 01:53:55;;;;;;;1.45;1.35;;;;;;;;;;5043181;28;20047;-84
2024/02/06 01:56:21;;;;;;;0.98;0.90;;;;;;;;;;5016677;28;20104;-85
2024/02/06 01:58:47;;;;;;;5.05;1.38;;;;;;;;;;5046729;28;20117;-83
2024/02/06 02:01:13;;;;;;;3.83;1.80;;;;;;;;;;5047037;28;20549;-85
2024/02/06 02:03:39;;;;;;;1.35;1.10;;;;;;;;;;5038014;28;20033;-84
2024/02/06 02:06:05;;;;;;;3.15;1.73;;;;;;;;;;5035094;28;20037;-84
2024/02/06 02:08:35;;;;;;;4.22;2.20;;;;;;;;;;5046482;28;20033;-86
2024/02/06 02:11:01;;;;;;;5.85;1.50;;;;;;;;;;5044599;28;20029;-85
2024/02/06 02:13:27;;;;;;;2.95;1.67;;;;;;;;;;5050972;28;20048;-86
2024/02/06 02:15:53;;;;;;;3.55;1.50;;;;;;;;;;5041162;28;20048;-84
2024/02/06 02:18:19;;;;;;;4.93;1.58;;;;;;;;;;5049721;28;20025;-84
2024/02/06 02:20:45;;;;;;;1.67;1.30;;;;;;;;;;5046433;28;20036;-84
2024/02/06 02:23:11;;;;;;;2.47;1.17;;;;;;;;;;5042026;28;20467;-85
2024/02/06 02:25:37;;;;;;;4.15;2.20;;;;;;;;;;5045095;28;20047;-84
2024/02/06 02:28:03;;;;;;;2.42;1.40;;;;;;;;;;5034410;28;20502;-84
2024/02/06 02:30:29;;;;;;;1.75;1.48;;;;;;;;;;5041165;28;20025;-84
2024/02/06 02:32:56;;;;;;;2.33;1.70;;;;;;;;;;5044474;28;20048;-84
2024/02/06 02:35:32;;;;;;;2.20;1.58;;;;;;;;;;5041480;28;20032;-84
2024/02/06 02:37:58;;;;;;;9.07;2.65;;;;;;;;;;5036702;28;20202;-84
2024/02/06 02:40:24;;;;;;;5.38;1.40;;;;;;;;;;5046914;28;20028;-84
2024/02/06 02:42:50;;;;;;;1.88;1.48;;;;;;;;;;5038311;28;20033;-84
2024/02/06 02:45:16;;;;;;;1.33;1.15;;;;;;;;;;5039465;28;20064;-85
2024/02/06 02:47:44;;;;;;;1.35;1.10;;;;;;;;;;5037793;28;20021;-86
2024/02/06 02:50:10;;;;;;;2.03;1.48;;;;;;;;;;5036413;28;20024;-83
2024/02/06 02:52:36;;;;;;;2.35;1.60;;;;;;;;;;5039346;28;20037;-84
2024/02/06 02:55:02;;;;;;;5.05;1.58;;;;;;;;;;5040516;28;20017;-84
2024/02/06 02:57:28;;;;;;;2.30;1.70;;;;;;;;;;5035460;28;20029;-84
2024/02/06 02:59:54;;;;;;;2.70;1.58;;;;;;;;;;5043503;28;20800;-84
2024/02/06 03:02:20;;;;;;;3.28;1.50;;;;;;;;;;5038736;28;20086;-84
2024/02/06 03:04:46;;;;;;;2.95;1.42;;;;;;;;;;5033816;28;20029;-83
2024/02/06 03:07:12;;;;;;;4.25;1.83;;;;;;;;;;5032898;28;20021;-83
2024/02/06 03:09:38;;;;;;;7.10;1.60;;;;;;;;;;5045196;28;20033;-84
2024/02/06 03:12:04;;;;;;;4.13;1.98;;;;;;;;;;5050334;28;20051;-84
2024/02/06 03:14:30;;;;;;;3.00;1.58;;;;;;;;;;5045440;28;20026;-84
2024/02/06 03:16:56;;;;;;;1.92;1.45;;;;;;;;;;5046166;28;20033;-84
2024/02/06 03:19:22;;;;;;;5.82;1.80;;;;;;;;;;5044980;28;20037;-84
2024/02/06 03:21:48;;;;;;;3.85;1.83;;;;;;;;;;5059502;28;20487;-85
2024/02/06 03:24:14;;;;;;;3.45;1.67;;;;;;;;;;5053501;28;20036;-83
2024/02/06 03:26:40;;;;;;;2.38;1.60;;;;;;;;;;5061378;28;20032;-84
2024/02/06 03:29:06;;;;;;;4.03;1.70;;;;;;;;;;5064065;28;20086;-84
2024/02/06 03:31:32;;;;;;;2.70;1.80;;;;;;;;;;5060036;28;20108;-85
2024/02/06 03:33:58;;;;;;;2.80;1.60;;;;;;;;;;5065929;28;20027;-85
2024/02/06 03:36:24;;;;;;;5.20;2.08;;;;;;;;;;5066202;28;20024;-84
2024/02/06 03:38:50;;;;;;;5.93;2.10;;;;;;;;;;5064269;28;20021;-85
2024/02/06 03:41:16;;;;;;;4.32;1.42;;;;;;;;;;5063279;28;20138;-84
2024/02/06 03:43:43;;;;;;;3.10;1.75;;;;;;;;;;5068937;28;20025;-84
2024/02/06 03:46:09;;;;;;;7.20;1.50;;;;;;;;;;5062071;28;20545;-85
2024/02/06 03:48:35;;;;;;;2.80;1.50;;;;;;;;;;5061321;28;20037;-84
2024/02/06 03:51:02;;;;;;;4.28;2.28;;;;;;;;;;5048084;28;20021;-83
2024/02/06 03:53:28;;;;;;;1.50;1.40;;;;;;;;;;5061680;28;20032;-84
2024/02/06 03:55:54;;;;;;;1.67;1.52;;;;;;;;;;5059352;28;20048;-84
2024/02/06 03:58:23;;;;;;;3.58;1.55;;;;;;;;;;5058972;28;20017;-84
2024/02/06 04:00:52;;;;;;;4.38;2.10;;;;;;;;;;5062047;28;20033;-84
2024/02/06 04:03:18;;;;;;;2.55;1.60;;;;;;;;;;5057979;28;20029;-85
2024/02/06 04:05:45;;;;;;;3.00;1.67;;;;;;;;;;5050918;28;20024;-84
2024/02/06 04:08:11;;;;;;;3.08;1.92;;;;;;;;;;5054105;28;20024;-84
2024/02/06 04:10:37;;;;;;;4.85;2.25;;;;;;;;;;5055334;28;20029;-85
2024/02/06 04:13:03;;;;;;;3.63;1.98;;;;;;;;;;5060645;28;20608;-84
2024/02/06 04:15:29;;;;;;;2.25;1.75;;;;;;;;;;5056093;28;20024;-83
2024/02/06 04:17:55;;;;;;;1.77;1.35;;;;;;;;;;5055815;28;20035;-85
2024/02/06 04:20:21;;;;;;;2.53;1.58;;;;;;;;;;5037617;28;20046;-84
2024/02/06 04:22:47;;;;;;;3.65;1.40;;;;;;;;;;5032538;28;20115;-84
2024/02/06 04:25:13;;;;;;;1.70;1.42;;;;;;;;;;5032068;28;20105;-84
2024/02/06 04:27:39;;;;;;;5.82;2.40;;;;;;;;;;5024447;28;20416;-85
2024/02/06 04:30:05;;;;;;;3.00;1.40;;;;;;;;;;5035500;28;20028;-84
2024/02/06 04:32:31;;;;;;;2.75;1.67;;;;;;;;;;5028643;28;20036;-83
2024/02/06 04:34:57;;;;;;;2.15;1.50;;;;;;;;;;5028213;28;20506;-85
2024/02/06 04:37:23;;;;;;;4.82;1.85;;;;;;;;;;5028305;28;20053;-84
2024/02/06 04:39:49;;;;;;;1.73;1.30;;;;;;;;;;5041080;28;20017;-84
2024/02/06 04:42:15;;;;;;;2.50;1.70;;;;;;;;;;5036722;28;20024;-84
2024/02/06 04:44:42;;;;;;;1.98;1.20;;;;;;;;;;5044569;28;20037;-84
2024/02/06 04:47:07;;;;;;;3.65;0.98;;;;;;;;;;5048001;28;20159;-84
2024/02/06 04:49:33;;;;;;;2.80;2.20;;;;;;;;;;5036633;28;20485;-85
2024/02/06 04:51:59;;;;;;;4.28;1.27;;;;;;;;;;5040937;28;20029;-85
2024/02/06 04:54:25;;;;;;;3.35;1.83;;;;;;;;;;5041486;28;20605;-85
2024/02/06 04:56:51;;;;;;;3.25;1.40;;;;;;;;;;5034582;28;20028;-85
2024/02/06 04:59:17;;;;;;;1.13;0.98;;;;;;;;;;5042773;28;20070;-85
2024/02/06 05:01:45;;;;;;;7.05;1.63;;;;;;;;;;5043391;28;20028;-84
2024/02/06 05:04:11;;;;;;;2.58;1.25;;;;;;;;;;5046959;28;20037;-84
2024/02/06 05:06:37;;;;;;;1.55;1.35;;;;;;;;;;5032643;28;20495;-84
2024/02/06 05:09:03;;;;;;;1.67;1.08;;;;;;;;;;5042526;28;20033;-83
2024/02/06 05:11:29;;;;;;;1.08;0.93;;;;;;;;;;5049678;28;20112;-84
2024/02/06 05:13:56;;;;;;;2.08;1.38;;;;;;;;;;5050242;28;20033;-85
2024/02/06 05:16:22;;;;;;;1.23;1.13;;;;;;;;;;5049134;28;20028;-85
2024/02/06 05:18:48;;;;;;;2.20;1.50;;;;;;;;;;5050070;28;20333;-85
2024/02/06 05:21:14;;;;;;;2.03;1.08;;;;;;;;;;5054329;28;20055;-84
2024/02/06 05:23:39;;;;;;;2.40;1.73;;;;;;;;;;5060327;28;20063;-85
2024/02/06 05:26:06;;;;;;;6.45;1.48;;;;;;;;;;5053075;28;20048;-83
2024/02/06 05:28:32;;;;;;;3.08;1.88;;;;;;;;;;5066942;28;20429;-84
2024/02/06 05:30:58;;;;;;;5.15;1.70;;;;;;;;;;5070550;28;20041;-84
2024/02/06 05:33:24;;;;;;;3.92;1.55;;;;;;;;;;5071516;28;20082;-85
2024/02/06 05:35:50;;;;;;;2.80;1.70;;;;;;;;;;5071125;28;20498;-84
2024/02/06 05:38:16;;;;;;;2.05;1.50;;;;;;;;;;5068502;28;20028;-85
2024/02/06 05:40:42;;;;;;;3.50;1.75;;;;;;;;;;5070300;28;20021;-85
2024/02/06 05:43:08;;;;;;;4.93;1.50;;;;;;;;;;5068103;28;20014;-85
2024/02/06 05:45:33;;;;;;;4.20;1.75;;;;;;;;;;5061231;28;20037;-83
2024/02/06 05:47:59;;;;;;;6.70;1.70;;;;;;;;;;5059503;28;20564;-84
2024/02/06 05:50:27;;;;;;;3.70;2.38;;;;;;;;;;5058369;28;20036;-84
2024/02/06 05:52:54;;;;;;;3.92;1.67;;;;;;;;;;5066853;28;20036;-85
2024/02/06 05:55:19;;;;;;;3.05;1.42;;;;;;;;;;5063788;28;20542;-84
2024/02/06 05:57:45;;;;;;;4.22;1.95;;;;;;;;;;5056016;28;20032;-84
2024/02/06 06:00:12;;;;;;;3.15;1.60;;;;;;;;;;5060495;28;20024;-83
2024/02/06 06:02:38;;;;;;;2.35;1.17;;;;;;;;;;5065629;28;20739;-84
2024/02/06 06:05:04;;;;;;;3.63;1.90;;;;;;;;;;5070373;28;20020;-84
2024/02/06 06:07:30;;;;;;;2.95;1.70;;;;;;;;;;5055450;28;20024;-85
2024/02/06 06:09:56;;;;;;;3.45;1.73;;;;;;;;;;5052706;28;20383;-84
2024/02/06 06:12:22;;;;;;;3.53;1.77;;;;;;;;;;5067305;28;20093;-84
2024/02/06 06:14:48;;;;;;;2.35;1.55;;;;;;;;;;5067791;28;20039;-84
2024/02/06 06:17:14;;;;;;;2.50;1.85;;;;;;;;;;5069129;28;20017;-84
2024/02/06 06:19:42;;;;;;;3.47;1.33;;;;;;;;;;5055153;28;20041;-84
2024/02/06 06:22:08;;;;;;;;;;;;;;;;;;5038201;28;20039;-83
2024/02/06 06:24:34;;;;;;;;;;;;;;;;;;5043262;28;19913;-84
2024/02/06 06:26:59;;;;;;;;;;;;;;;;;;5042649;28;19915;-84
2024/02/06 06:29:25;;;;;;;;;;;;;;;;;;5044079;28;19913;-82
2024/02/06 06:31:51;;;;;;;;;;;;;;;;;;5045692;28;20291;-83
2024/02/06 06:34:17;;;;;;;;;;;;;;;;;;5049030;28;19911;-85
2024/02/06 06:36:43;;;;;;;;;;;;;;;;;;5035375;28;19960;-84
2024/02/06 06:39:11;;;;;;;;;;;;;;;;;;5044282;28;19948;-83
2024/02/06 06:41:37;;;;;;;;;;;;;;;;;;5048288;28;19931;-83
2024/02/06 06:44:02;;;;;;;;;;;;;;;;;;5035943;28;20382;-84
2024/02/06 06:46:29;;;;;;;;;;;;;;;;;;5041158;28;19925;-84
2024/02/06 06:48:54;;;;;;;;;;;;;;;;;;5034852;28;19933;-83
2024/02/06 06:51:21;;;;;;;;;;;;;;;;;;5039732;28;19948;-84
2024/02/06 06:53:46;;;;;;;;;;;;;;;;;;5025578;28;19905;-83
2024/02/06 06:56:12;;;;;;;;;;;;;;;;;;5042014;28;19919;-84
2024/02/06 06:58:38;;;;;;;;;;;;;;;;;;5042197;28;20299;-85
2024/02/06 07:01:05;;;;;;;;;;;;;;;;;;5037533;28;19940;-85
2024/02/06 07:03:31;;;;;;;;;;;;;;;;;;5049898;28;19905;-85
2024/02/06 07:05:57;;;;;;;;;;;;;;;;;;5030257;28;19909;-83
2024/02/06 07:08:22;;;;;;;;;;;;;;;;;;5034674;28;19919;-83
2024/02/06 07:10:48;;;;;;;;;;;;;;;;;;5037994;28;19920;-84
2024/02/06 07:13:14;;;;;;;;;;;;;;;;;;5031210;28;19916;-84
2024/02/06 07:15:40;;;;;;;;;;;;;;;;;;5041258;28;19912;-85
2024/02/06 07:18:06;;;;;;;;;;;;;;;;;;5045880;28;19951;-84
2024/02/06 07:20:32;;;;;;;;;;;;;;;;;;5043004;28;20019;-82
2024/02/06 07:22:57;;;;;;;;;;;;;;;;;;5042064;28;19913;-84
2024/02/06 07:25:24;;;;;;;;;;;;;;;;;;5050073;28;19916;-84
2024/02/06 07:27:49;;;;;;;;;;;;;;;;;;5040484;28;19915;-83
2024/02/06 07:30:15;;;;;;;;;;;;;;;;;;5030627;28;20278;-83
2024/02/06 07:32:41;;;;;;;;;;;;;;;;;;5041507;28;19916;-83
2024/02/06 07:35:08;;;;;;;;;;;;;;;;;;5041184;28;20514;-84
2024/02/06 07:37:34;;;;;;;;;;;;;;;;;;5048268;28;19962;-83
2024/02/06 07:40:00;;;;;;;;;;;;;;;;;;5047899;28;19913;-84
2024/02/06 07:42:25;;;;;;;;;;;;;;;;;;5038662;28;19951;-84
2024/02/06 07:44:52;;;;;;;;;;;;;;;;;;5038644;28;19913;-83
2024/02/06 07:47:18;;;;;;;;;;;;;;;;;;5033499;28;19920;-83
2024/02/06 07:49:44;;;;;;;;;;;;;;;;;;5029156;28;20299;-84
2024/02/06 07:52:10;;;;;;;;;;;;;;;;;;5033915;28;20390;-84
2024/02/06 07:54:36;;;;;;;;;;;;;;;;;;5047942;28;19905;-83
2024/02/06 07:57:01;;;;;;;;;;;;;;;;;;5035691;28;19976;-82
2024/02/06 07:59:27;;;;;;;;;;;;;;;;;;5048358;28;19912;-84
2024/02/06 08:01:53;;;;;;;;;;;;;;;;;;5041677;28;19971;-85
2024/02/06 08:04:19;;;;;;;;;;;;;;;;;;5040963;28;19916;-84
2024/02/06 08:06:45;;;;;;;;;;;;;;;;;;5045037;28;19909;-85
2024/02/06 08:09:11;;;;;;;;;;;;;;;;;;5042734;28;19924;-84
2024/02/06 08:11:37;;;;;;;;;;;;;;;;;;5030643;28;19908;-85
2024/02/06 08:14:03;;;;;;;;;;;;;;;;;;5029054;28;19948;-84
2024/02/06 08:16:29;;;;;;;;;;;;;;;;;;5028400;28;19913;-86
2024/02/06 08:18:55;;;;;;;;;;;;;;;;;;5040602;28;20004;-84
2024/02/06 08:21:21;;;;;;;;;;;;;;;;;;5046580;28;19905;-84
2024/02/06 08:23:47;;;;;;;;;;;;;;;;;;5032815;28;19952;-84
2024/02/06 08:26:13;;;;;;;;;;;;;;;;;;5038166;28;19915;-85
2024/02/06 08:28:39;;;;;;;;;;;;;;;;;;5046370;28;19915;-83
2024/02/06 08:31:06;;;;;;;;;;;;;;;;;;5044936;28;19913;-83
2024/02/06 08:33:31;;;;;;;;;;;;;;;;;;5033040;28;19935;-84
2024/02/06 08:35:57;;;;;;;;;;;;;;;;;;5037058;28;20348;-83
2024/02/06 08:38:23;;;;;;;;;;;;;;;;;;5051790;28;19960;-82
2024/02/06 08:40:49;;;;;;;;;;;;;;;;;;5046509;28;20424;-80
2024/02/06 08:43:16;;;;;;;;;;;;;;;;;;5045061;28;19912;-84
2024/02/06 08:45:41;;;;;;;;;;;;;;;;;;5042990;28;19909;-83
2024/02/06 08:48:08;;;;;;;;;;;;;;;;;;5034850;28;20042;-86
2024/02/06 08:50:34;;;;;;;;;;;;;;;;;;5040337;28;19920;-85
2024/02/06 08:53:00;;;;;;;;;;;;;;;;;;5036224;28;19916;-85
2024/02/06 08:55:25;;;;;;;;;;;;;;;;;;5040808;28;20287;-85
2024/02/06 08:57:51;;;;;;;;;;;;;;;;;;5040395;28;20067;-85
2024/02/06 09:00:17;;;;;;;;;;;;;;;;;;5039315;28;19913;-86
2024/02/06 09:02:43;;;;;;;;;;;;;;;;;;5044719;28;19956;-85
2024/02/06 09:05:09;;;;;;;;;;;;;;;;;;5044007;28;20034;-85
2024/02/06 09:07:35;;;;;;;;;;;;;;;;;;5046818;28;20274;-84
2024/02/06 09:10:01;;;;;;;;;;;;;;;;;;5045160;28;19908;-85
2024/02/06 09:12:27;;;;;;;;;;;;;;;;;;5032324;28;19936;-83
2024/02/06 09:14:53;;;;;;;;;;;;;;;;;;5037860;28;19936;-85
2024/02/06 09:17:19;;;;;;;;;;;;;;;;;;5045296;28;19917;-86
2024/02/06 09:19:45;;;;;;;;;;;;;;;;;;5050167;28;20383;-83
2024/02/06 09:22:11;;;;;;;;;;;;;;;;;;5064957;28;19943;-84
2024/02/06 09:24:37;;;;;;;;;;;;;;;;;;5067385;28;20390;-87
2024/02/06 09:27:02;;;;;;;;;;;;;;;;;;5070558;28;20023;-85
2024/02/06 09:29:28;;;;;;;;;;;;;;;;;;5060818;28;19939;-87
2024/02/06 09:31:54;;;;;;;;;;;;;;;;;;5066096;28;19912;-86
2024/02/06 09:34:20;;;;;;;;;;;;;;;;;;5057753;28;19947;-86
2024/02/06 09:36:46;;;;;;;;;;;;;;;;;;5049968;28;19912;-86
2024/02/06 09:39:12;;;;;;;;;;;;;;;;;;5059438;28;19909;-86
2024/02/06 09:41:39;;;;;;;;;;;;;;;;;;5057670;28;19912;-85
2024/02/06 09:44:05;;;;;;;;;;;;;;;;;;5062902;28;19996;-84
2024/02/06 09:46:31;;;;;;;;;;;;;;;;;;5062454;28;19958;-85
2024/02/06 09:48:57;;;;;;;;;;;;;;;;;;5061163;28;19909;-86
2024/02/06 09:51:26;;;;;;;;;;;;;;;;;;5067214;28;20255;-85
2024/02/06 09:53:51;;;;;;;;;;;;;;;;;;5057644;28;19952;-87
2024/02/06 09:56:19;;;;;;;;;;;;;;;;;;5053705;28;20260;-87
2024/02/06 09:58:44;;;;;;;;;;;;;;;;;;5067539;28;19916;-84
2024/02/06 10:01:12;;;;;;;;;;;;;;;;;;5060781;28;19919;-82
2024/02/06 10:03:38;;;;;;;;;;;;;;;;;;5070355;28;20010;-87
2024/02/06 10:06:07;;;;;;;;;;;;;;;;;;5065957;28;20001;-91
2024/02/06 10:08:33;;;;;;;;;;;;;;;;;;5064083;28;20393;-91
2024/02/06 10:10:58;;;;;;;;;;;;;;;;;;5069026;28;19916;-92
2024/02/06 10:13:24;;;;;;;;;;;;;;;;;;5080119;28;19951;-93
2024/02/06 10:15:50;;;;;;;;;;;;;;;;;;5051188;28;19912;-93
2024/02/06 10:18:16;;;;;;;;;;;;;;;;;;5071314;28;20358;-91
2024/02/06 10:20:42;;;;;;;;;;;;;;;;;;5054719;28;19912;-89
2024/02/06 10:23:08;;;;;;;;;;;;;;;;;;5049924;28;20004;-88
2024/02/06 10:25:34;;;;;;;;;;;;;;;;;;5042140;28;19912;-93
2024/02/06 10:28:02;;;;;;;;;;;;;;;;;;5024817;28;19953;-93
2024/02/06 10:30:28;;;;;;;;;;;;;;;;;;5045003;28;19912;-91
2024/02/06 10:32:54;;;;;;;;;;;;;;;;;;5045642;28;20303;-92
2024/02/06 10:35:20;;;;;;;;;;;;;;;;;;5057327;28;20339;-92
2024/02/06 10:37:46;;;;;;;;;;;;;;;;;;5036576;28;19952;-91
2024/02/06 10:40:15;;;;;;;;;;;;;;;;;;5036402;28;19905;-91
2024/02/06 10:42:41;;;;;;;;;;;;;;;;;;5052291;28;19912;-90
2024/02/06 10:45:09;;;;;;;;;;;;;;;;;;5046924;28;20356;-93
2024/02/06 10:47:35;;;;;;;;;;;;;;;;;;5051555;28;20011;-90
2024/02/06 10:50:04;;;;;;;;;;;;;;;;;;5053478;28;19924;-90
2024/02/06 10:52:30;;;;;;;;;;;;;;;;;;5045034;28;19912;-91
2024/02/06 10:54:56;;;;;;;;;;;;;;;;;;5057319;28;19912;-93
2024/02/06 10:57:22;;;;;;;;;;;;;;;;;;5048636;28;19905;-91
2024/02/06 10:59:48;;;;;;;;;;;;;;;;;;5042475;28;19931;-92
2024/02/06 11:02:14;;;;;;;;;;;;;;;;;;5047721;28;20432;-92
2024/02/06 11:04:40;;;;;;;;;;;;;;;;;;5050394;28;19904;-89
2024/02/06 11:07:06;;;;;;;;;;;;;;;;;;5019938;28;19912;-91
2024/02/06 11:09:32;;;;;;;;;;;;;;;;;;5053613;28;19909;-92
2024/02/06 11:11:59;;;;;;;;;;;;;;;;;;5037826;28;20291;-92
2024/02/06 11:14:25;;;;;;;;;;;;;;;;;;5053236;28;19904;-92
2024/02/06 11:16:51;;;;;;;;;;;;;;;;;;5038223;28;19905;-90
2024/02/06 11:19:19;;;;;;;;;;;;;;;;;;5047278;28;22620;-93
2024/02/06 11:21:44;;;;;;;;;;;;;;;;;;5060771;28;19920;-91
2024/02/06 11:24:13;;;;;;;;;;;;;;;;;;5051938;28;20379;-90
2024/02/06 11:26:39;;;;;;;;;;;;;;;;;;5022403;28;19917;-90
2024/02/06 11:29:08;;;;;;;;;;;;;;;;;;5061355;28;19921;-90
2024/02/06 11:31:34;;;;;;;;;;;;;;;;;;5050738;28;19917;-90
2024/02/06 11:33:59;;;;;;;;;;;;;;;;;;5040269;28;19916;-93
2024/02/06 11:36:25;;;;;;;;;;;;;;;;;;5047624;28;19910;-89
2024/02/06 11:38:53;;;;;;;;;;;;;;;;;;5041339;28;20427;-93
2024/02/06 11:41:19;;;;;;;;;;;;;;;;;;5048725;28;19913;-92
2024/02/06 11:43:50;;;;;;;;;;;;;;;;;;5041432;28;20366;-89
2024/02/06 11:46:19;;;;;;;;;;;;;;;;;;5050397;28;19948;-92
2024/02/06 11:48:47;;;;;;;;;;;;;;;;;;5053791;28;19909;-92
2024/02/06 11:51:13;;;;;;;;;;;;;;;;;;5035228;28;19913;-90
2024/02/06 11:53:39;;;;;;;;;;;;;;;;;;5058113;28;19924;-92
2024/02/06 11:56:07;;;;;;;;;;;;;;;;;;5051611;28;19916;-92
2024/02/06 11:58:36;;;;;;;;;;;;;;;;;;5043213;28;20271;-91
2024/02/06 12:01:06;;;;;;;;;;;;;;;;;;5041442;28;19916;-92
2024/02/06 12:03:32;;;;;;;;;;;;;;;;;;5059799;28;19916;-92
2024/02/06 12:05:57;;;;;;;;;;;;;;;;;;5060701;28;19909;-91
2024/02/06 12:08:25;;;;;;;;;;;;;;;;;;5056156;28;19898;-89
2024/02/06 12:10:51;;;;;;;;;;;;;;;;;;5044296;28;19909;-94
2024/02/06 12:13:17;;;;;;;;;;;;;;;;;;5033396;28;20446;-92
2024/02/06 12:15:43;;;;;;;;;;;;;;;;;;5035183;28;19921;-90
2024/02/06 12:18:10;;;;;;;;;;;;;;;;;;5039081;28;19913;-89
2024/02/06 12:20:36;;;;;;;2.90;1.10;;;;;;;;;;5046430;28;20411;-92
2024/02/06 12:23:05;;;;;;;0.93;0.88;;;;;;;;;;5023892;28;20088;-91
2024/02/06 12:25:34;;;;;;;2.78;1.30;;;;;;;;;;5043232;28;20026;-91
2024/02/06 12:28:01;;;;;;;2.33;0.88;;;;;;;;;;5056844;28;20477;-92
2024/02/06 12:30:29;;;;;;;2.22;1.40;;;;;;;;;;5060910;28;20017;-92
2024/02/06 12:33:01;;;;;;;2.58;1.00;;;;;;;;;;5045148;28;20029;-90
2024/02/06 12:38:03;;;;;;;0.65;0.52;;;;;;;;;;5085652;28;20104;-92
2024/02/06 12:40:30;;;;;;;1.42;0.85;;;;;;;;;;5082085;28;20039;-89
2024/02/06 12:42:59;;;;;;;0.77;0.77;;;;;;;;;;5066138;28;20127;-92
2024/02/06 12:45:33;;;;;;;0.70;0.70;;;;;;;;;;5086591;28;20048;-90
2024/02/06 12:47:59;;;;;;;0.90;0.90;;;;;;;;;;5055708;28;20063;-87
2024/02/06 12:50:26;;;;;;;1.25;0.98;;;;;;;;;;5064590;28;20027;-92
2024/02/06 12:52:52;;;;;;;1.30;0.80;;;;;;;;;;5045807;28;20033;-91
2024/02/06 12:55:24;;;;;;;1.45;0.95;;;;;;;;;;5066516;28;20043;-87
2024/02/06 12:57:56;;;;;;;0.98;0.85;;;;;;;;;;5079633;28;20029;-90
2024/02/06 13:00:23;;;;;;;1.17;0.88;;;;;;;;;;5088505;28;20021;-91
2024/02/06 13:02:59;;;;;;;0.73;0.73;;;;;;;;;;5093563;28;20031;-91
2024/02/06 13:05:28;;;;;;;0.82;0.80;;;;;;;;;;5113127;23;20144;-92
2024/02/06 13:08:08;;;;;;;2.25;0.90;;;;;;;;;;5078610;28;20037;-91
2024/02/06 13:10:37;;;;;;;2.00;1.20;;;;;;;;;;5075151;28;20063;-90
2024/02/06 13:13:21;;;;;;;3.88;1.13;;;;;;;;;;5072559;28;20013;-93
2024/02/06 13:15:47;;;;;;;0.50;0.50;;;;;;;;;;5064640;28;20028;-91
2024/02/06 13:18:19;;;;;;;3.30;0.90;;;;;;;;;;5071404;28;20092;-92
2024/02/06 13:20:46;;;;;;;0.68;0.63;;;;;;;;;;5065723;28;20049;-91
2024/02/06 13:23:18;;;;;;;0.95;0.88;;;;;;;;;;5070486;28;20442;-91
2024/02/06 13:25:49;;;;;;;0.60;0.60;;;;;;;;;;5050653;28;20009;-90
2024/02/06 13:28:19;;;;;;;0.77;0.77;;;;;;;;;;5063647;28;20056;-91
2024/02/06 13:30:45;;;;;;;1.40;0.93;;;;;;;;;;5150633;22;20060;-91
2024/02/06 13:35:42;;;;;;;1.00;0.70;;;;;;;;;;5098659;28;20048;-89
2024/02/06 13:38:11;;;;;;;12.30;1.08;;;;;;;;;;5095794;28;20024;-92
2024/02/06 13:40:37;;;;;;;1.23;0.63;;;;;;;;;;5103411;28;20049;-88
2024/02/06 13:43:04;;;;;;;2.42;0.90;;;;;;;;;;5081599;28;20032;-89
2024/02/06 13:45:30;;;;;;;1.42;1.00;;;;;;;;;;5102668;28;20036;-91
2024/02/06 13:47:58;;;;;;;0.68;0.68;;;;;;;;;;5075129;28;20025;-91
2024/02/06 13:50:24;;;;;;;1.10;0.75;;;;;;;;;;5085747;28;20024;-91
2024/02/06 13:52:50;;;;;;;1.73;0.75;;;;;;;;;;5098152;28;20043;-90
2024/02/06 13:55:16;;;;;;;1.38;0.70;;;;;;;;;;5068971;28;20031;-90
2024/02/06 13:57:42;;;;;;;0.70;0.70;;;;;;;;;;5094319;28;20051;-93
2024/02/06 14:00:12;;;;;;;4.50;1.27;;;;;;;;;;5098828;28;20020;-89
2024/02/06 14:02:41;;;;;;;1.80;0.90;;;;;;;;;;5107718;28;20036;-91
2024/02/06 14:05:07;;;;;;;4.65;1.63;;;;;;;;;;5067593;28;20045;-92
2024/02/06 14:07:36;;;;;;;0.73;0.60;;;;;;;;;;5087506;28;20009;-90
2024/02/06 14:10:02;;;;;;;1.67;0.90;;;;;;;;;;5176982;23;20067;-90
2024/02/06 14:12:28;;;;;;;0.60;0.60;;;;;;;;;;5103438;28;20027;-92
2024/02/06 14:14:54;;;;;;;1.98;0.80;;;;;;;;;;5104676;28;20023;-93
2024/02/06 14:17:21;;;;;;;1.67;1.13;;;;;;;;;;5104232;28;20024;-85
2024/02/06 14:19:47;;;;;;;2.25;0.98;;;;;;;;;;5105847;28;20021;-89
2024/02/06 14:22:13;;;;;;;1.30;0.85;;;;;;;;;;5105705;28;20023;-88
2024/02/06 14:24:39;;;;;;;1.00;0.90;;;;;;;;;;5108924;28;20024;-92
2024/02/06 14:27:05;;;;;;;2.50;0.90;;;;;;;;;;5104016;28;20020;-90
2024/02/06 14:29:34;;;;;;;4.65;0.82;;;;;;;;;;5103574;28;20032;-92
2024/02/06 14:32:01;;;;;;;1.17;1.00;;;;;;;;;;5107300;28;20020;-89
2024/02/06 14:34:27;;;;;;;0.80;0.80;;;;;;;;;;5095603;28;20055;-91
2024/02/06 14:36:53;;;;;;;0.70;0.70;;;;;;;;;;5100114;28;20107;-90
2024/02/06 14:39:19;;;;;;;2.90;1.10;;;;;;;;;;5087171;28;20021;-88
2024/02/06 14:41:45;;;;;;;0.70;0.70;;;;;;;;;;5103808;28;20052;-90
2024/02/06 14:44:11;;;;;;;1.38;0.95;;;;;;;;;;5096300;28;20054;-92
2024/02/06 14:46:37;;;;;;;0.98;0.88;;;;;;;;;;5111813;28;20036;-91
2024/02/06 14:49:08;;;;;;;1.05;0.70;;;;;;;;;;5393489;22;20023;-89
2024/02/06 14:51:47;;;;;;;0.90;0.85;;;;;;;;;;5102046;28;20036;-87
2024/02/06 14:54:13;;;;;;;0.98;0.73;;;;;;;;;;5090339;28;20021;-89
2024/02/06 14:56:46;;;;;;;1.75;0.90;;;;;;;;;;5094856;28;20024;-87
2024/02/06 14:59:12;;;;;;;1.00;0.68;;;;;;;;;;5102703;28;20041;-88
2024/02/06 15:01:43;;;;;;;2.67;1.10;;;;;;;;;;5105661;28;20500;-87
2024/02/06 15:04:10;;;;;;;7.30;0.80;;;;;;;;;;5104961;28;20027;-87
2024/02/06 15:06:37;;;;;;;0.98;0.93;;;;;;;;;;5100446;28;20032;-88
2024/02/06 15:09:06;;;;;;;0.80;0.80;;;;;;;;;;5105989;28;20486;-91
2024/02/06 15:11:32;;;;;;;0.80;0.80;;;;;;;;;;5099783;28;20020;-89
2024/02/06 15:13:58;;;;;;;1.15;0.80;;;;;;;;;;5096304;28;20032;-90
2024/02/06 15:16:25;;;;;;;0.90;0.90;;;;;;;;;;5100492;28;20119;-89
2024/02/06 15:18:51;;;;;;;0.63;0.60;;;;;;;;;;5097647;28;20510;-87
2024/02/06 15:21:18;;;;;;;3.67;0.85;;;;;;;;;;5102487;28;20043;-89
2024/02/06 15:23:45;;;;;;;0.98;0.63;;;;;;;;;;5099372;28;20039;-86
2024/02/06 15:26:11;;;;;;;1.27;0.80;;;;;;;;;;5087352;28;20036;-88
2024/02/06 15:28:37;;;;;;;0.95;0.85;;;;;;;;;;5097344;28;20047;-89